Time;durP1;ratioP1;P1;durP2;ratioP2;P2;SDS_P1;SDS_P2;PMS_P1;PMS_P2;Temp;Humidity;BMP_temperature;BMP_pressure;BME280_temperature;BME280_humidity;BME280_pressure;Samples;Min_cycle;Max_cycle;Signal;HPM_P1;HPM_P2
2022/12/16 00:01:14;;;;;;;24.30;12.93;;;;;;;1.00;58.57;99160.28;5010068;28;20136;-79
2022/12/16 00:03:46;;;;;;;26.50;13.07;;;;;;;1.04;58.68;99164.50;4992385;28;20104;-79
2022/12/16 00:06:13;;;;;;;23.45;11.85;;;;;;;1.11;58.19;99170.38;5009624;28;20566;-79
2022/12/16 00:08:39;;;;;;;25.52;12.70;;;;;;;1.14;58.62;99163.38;5009550;28;20491;-79
2022/12/16 00:11:07;;;;;;;25.00;12.95;;;;;;;1.15;58.39;99165.06;5009875;28;20136;-79
2022/12/16 00:13:34;;;;;;;26.90;14.05;;;;;;;1.19;58.01;99171.00;5009777;28;20089;-79
2022/12/16 00:16:10;;;;;;;25.50;13.18;;;;;;;1.17;58.85;99165.84;5009724;28;20085;-79
2022/12/16 00:18:38;;;;;;;24.58;13.52;;;;;;;1.19;58.10;99165.81;5009662;28;20057;-80
2022/12/16 00:21:05;;;;;;;22.15;12.88;;;;;;;1.19;58.48;99167.59;5009673;28;20054;-79
2022/12/16 00:23:33;;;;;;;29.33;14.15;;;;;;;1.19;58.29;99171.00;5010031;28;20054;-79
2022/12/16 00:26:01;;;;;;;26.95;14.25;;;;;;;1.18;58.36;99174.50;4992514;28;20062;-79
2022/12/16 00:28:27;;;;;;;26.92;13.50;;;;;;;1.20;58.07;99174.47;5009540;28;20136;-80
2022/12/16 00:30:54;;;;;;;25.30;14.02;;;;;;;1.21;57.99;99176.16;5009554;28;20053;-79
2022/12/16 00:33:23;;;;;;;25.48;13.15;;;;;;;1.23;58.40;99179.56;5009459;28;20108;-79
2022/12/16 00:35:50;;;;;;;24.10;11.88;;;;;;;1.26;58.11;99187.25;5009407;28;20108;-79
2022/12/16 00:38:17;;;;;;;26.83;12.85;;;;;;;1.27;58.37;99174.25;5009444;28;20149;-80
2022/12/16 00:40:44;;;;;;;21.35;11.25;;;;;;;1.33;58.15;99172.34;5009783;28;20316;-79
2022/12/16 00:43:10;;;;;;;24.33;13.20;;;;;;;1.36;57.88;99173.16;5012234;28;20089;-79
2022/12/16 00:45:38;;;;;;;22.13;11.48;;;;;;;1.39;58.01;99173.03;4995551;28;20089;-79
2022/12/16 00:48:05;;;;;;;19.55;11.18;;;;;;;1.46;58.20;99172.88;5012931;28;20141;-79
2022/12/16 00:50:32;;;;;;;18.42;11.13;;;;;;;1.50;58.41;99190.06;5013366;28;20101;-79
2022/12/16 00:52:59;;;;;;;19.50;11.13;;;;;;;1.55;58.39;99186.44;5013423;28;20107;-79
2022/12/16 00:55:26;;;;;;;22.13;11.43;;;;;;;1.58;58.19;99182.91;5013123;28;20057;-80
2022/12/16 00:57:52;;;;;;;19.67;11.10;;;;;;;1.63;58.05;99185.34;5012774;28;20108;-79
2022/12/16 01:00:21;;;;;;;21.38;11.60;;;;;;;1.66;58.15;99178.34;5012889;28;20496;-79
2022/12/16 01:02:49;;;;;;;19.27;11.10;;;;;;;1.68;57.43;99179.13;5012726;28;20061;-79
2022/12/16 01:05:19;;;;;;;17.13;10.68;;;;;;;1.71;57.42;99177.34;5012713;28;20058;-79
2022/12/16 01:07:46;;;;;;;17.42;10.52;;;;;;;1.72;57.77;99172.09;4995287;28;20065;-79
2022/12/16 01:10:13;;;;;;;21.05;11.55;;;;;;;1.75;57.88;99174.59;5012591;28;20551;-79
2022/12/16 01:12:39;;;;;;;18.40;10.55;;;;;;;1.76;57.74;99175.47;5012644;28;20474;-79
2022/12/16 01:17:45;;;;;;;20.17;10.88;;;;;;;1.76;57.46;99185.84;4971213;28;20061;-82
2022/12/16 01:20:13;;;;;;;20.48;10.85;;;;;;;1.73;57.14;99184.19;4974297;28;20063;-82
2022/12/16 01:22:40;;;;;;;20.00;11.43;;;;;;;1.72;57.21;99189.41;4974481;28;20055;-82
2022/12/16 01:25:09;;;;;;;22.88;11.60;;;;;;;1.68;57.36;99183.44;4973893;28;20069;-82
2022/12/16 01:27:36;;;;;;;23.38;11.65;;;;;;;1.66;56.95;99187.84;4973835;28;20503;-82
2022/12/16 01:30:03;;;;;;;19.13;11.00;;;;;;;1.61;57.02;99190.56;4973615;28;20129;-82
2022/12/16 01:32:30;;;;;;;18.83;11.07;;;;;;;1.60;57.35;99193.22;4974116;28;20047;-84
2022/12/16 01:34:57;;;;;;;21.08;11.50;;;;;;;1.58;57.30;99200.19;4972562;28;20054;-82
2022/12/16 01:37:24;;;;;;;19.00;11.13;;;;;;;1.56;57.05;99195.03;4974097;28;20101;-82
2022/12/16 01:39:51;;;;;;;19.83;10.75;;;;;;;1.54;56.89;99200.28;4973831;28;20142;-81
2022/12/16 01:42:20;;;;;;;19.50;10.70;;;;;;;1.52;57.03;99209.84;4973734;28;20063;-81
2022/12/16 01:44:49;;;;;;;19.70;10.77;;;;;;;1.51;56.90;99202.97;4973377;28;20058;-81
2022/12/16 01:47:31;;;;;;;19.80;11.27;;;;;;;1.49;57.10;99209.09;4973714;28;20058;-82
2022/12/16 01:50:00;;;;;;;21.95;11.23;;;;;;;1.47;57.23;99211.75;4973577;28;20058;-80
2022/12/16 01:52:35;;;;;;;17.95;10.90;;;;;;;1.43;56.59;99213.56;4973461;28;20066;-81
2022/12/16 01:55:08;;;;;;;19.15;11.38;;;;;;;1.40;57.29;99213.66;4971167;28;20058;-82
2022/12/16 01:57:50;;;;;;;22.02;12.07;;;;;;;1.37;57.25;99215.47;4972399;28;20082;-81
2022/12/16 02:00:21;;;;;;;18.10;11.30;;;;;;;1.36;56.94;99219.81;4973451;28;20582;-80
2022/12/16 02:02:48;;;;;;;21.73;12.15;;;;;;;1.33;57.09;99213.84;4973102;28;20143;-81
2022/12/16 02:05:19;;;;;;;25.25;13.00;;;;;;;1.28;56.95;99220.00;4973076;28;20059;-81
2022/12/16 02:08:13;;;;;;;24.73;11.75;;;;;;;1.21;57.63;99222.81;4973018;28;20061;-81
2022/12/16 02:10:43;;;;;;;20.45;11.48;;;;;;;1.20;56.73;99215.94;4973115;28;20138;-81
2022/12/16 02:13:46;;;;;;;22.83;11.95;;;;;;;1.15;56.93;99221.25;4973223;28;20149;-80
2022/12/16 02:16:29;;;;;;;;;;;;;;;1.16;57.24;99218.59;4987339;28;20089;-80
2022/12/16 02:19:09;;;;;;;19.85;10.05;;;;;;;1.16;56.60;99213.44;5011885;28;19926;-80
2022/12/16 02:21:48;;;;;;;29.52;12.38;;;;;;;1.08;57.54;99220.56;5012061;28;20160;-80
2022/12/16 02:24:43;;;;;;;23.70;12.25;;;;;;;1.04;57.55;99222.38;5012026;28;20409;-81
2022/12/16 02:27:29;;;;;;;24.35;12.90;;;;;;;1.02;57.44;99215.53;5011486;28;20419;-82
2022/12/16 02:30:05;;;;;;;27.52;13.30;;;;;;;0.93;57.66;99214.03;5012017;28;20050;-83
2022/12/16 02:32:50;;;;;;;23.83;13.30;;;;;;;0.91;57.34;99219.25;5011516;28;20505;-82
2022/12/16 02:35:37;;;;;;;29.10;14.73;;;;;;;0.82;58.60;99222.09;5011888;28;20061;-81
2022/12/16 02:38:34;;;;;;;24.45;13.90;;;;;;;0.78;57.77;99220.47;4994008;28;20065;-81
2022/12/16 02:41:11;;;;;;;23.70;13.50;;;;;;;0.76;58.12;99227.44;4994171;28;20065;-81
2022/12/16 02:43:49;;;;;;;25.13;13.48;;;;;;;0.71;58.22;99227.53;5011776;28;20101;-81
2022/12/16 02:46:18;;;;;;;25.45;14.05;;;;;;;0.70;58.04;99228.44;5011521;28;20080;-81
2022/12/16 02:48:44;;;;;;;23.02;13.30;;;;;;;0.68;58.02;99231.94;5011576;28;20061;-81
2022/12/16 02:51:11;;;;;;;27.13;14.15;;;;;;;0.66;57.80;99234.56;5011273;28;20064;-81
2022/12/16 02:53:40;;;;;;;25.00;14.25;;;;;;;0.63;58.22;99232.91;5011370;28;20064;-81
2022/12/16 02:56:35;;;;;;;26.95;14.82;;;;;;;0.59;58.61;99241.66;5011367;28;20553;-80
2022/12/16 02:59:37;;;;;;;24.40;14.25;;;;;;;0.58;58.63;99236.50;5011410;28;20057;-82
2022/12/16 03:02:15;;;;;;;28.05;13.98;;;;;;;0.54;58.35;99238.31;4997858;28;20058;-80
2022/12/16 03:04:51;;;;;;;29.15;14.60;;;;;;;0.50;57.97;99242.75;5011007;28;20133;-81
2022/12/16 03:07:21;;;;;;;28.63;14.45;;;;;;;0.47;57.93;99242.81;4993850;28;20057;-81
2022/12/16 03:09:49;;;;;;;24.95;14.48;;;;;;;0.44;57.98;99244.63;5011283;28;20511;-80
2022/12/16 03:12:19;;;;;;;25.95;14.70;;;;;;;0.41;57.75;99236.91;5010848;28;20077;-81
2022/12/16 03:14:48;;;;;;;24.58;13.40;;;;;;;0.38;57.95;99232.66;5011116;28;20058;-81
2022/12/16 03:17:17;;;;;;;26.67;14.98;;;;;;;0.36;58.12;99235.28;5010821;28;20495;-81
2022/12/16 03:19:52;;;;;;;26.60;15.18;;;;;;;0.33;58.13;99232.75;5011288;28;20050;-81
2022/12/16 03:22:26;;;;;;;26.83;14.82;;;;;;;0.31;58.15;99244.91;4993551;28;20058;-82
2022/12/16 03:24:53;;;;;;;30.80;14.88;;;;;;;0.30;58.01;99240.59;5010831;28;20232;-82
2022/12/16 03:27:27;;;;;;;29.17;15.23;;;;;;;0.27;57.99;99239.81;4993312;28;20512;-80
2022/12/16 03:30:23;;;;;;;29.15;14.65;;;;;;;0.23;58.70;99249.41;5011109;28;20064;-81
2022/12/16 03:33:02;;;;;;;24.75;13.73;;;;;;;0.22;57.89;99251.13;5010586;28;20058;-80
2022/12/16 03:35:38;;;;;;;26.67;13.57;;;;;;;0.19;58.44;99258.13;5010928;28;20069;-81
2022/12/16 03:38:08;;;;;;;28.17;15.32;;;;;;;0.16;58.19;99250.41;5010817;28;20069;-82
2022/12/16 03:40:40;;;;;;;30.77;15.20;;;;;;;0.15;58.35;99253.91;5010997;28;20076;-80
2022/12/16 03:43:08;;;;;;;24.73;14.35;;;;;;;0.12;57.98;99249.66;5011138;28;20054;-81
2022/12/16 03:45:40;;;;;;;23.13;14.18;;;;;;;0.09;58.41;99255.75;5010443;28;20411;-83
2022/12/16 03:48:11;;;;;;;29.83;14.60;;;;;;;0.07;58.57;99254.06;5010769;28;20058;-81
2022/12/16 03:50:39;;;;;;;35.13;16.58;;;;;;;0.05;58.04;99256.69;5010643;28;20058;-80
2022/12/16 03:53:06;;;;;;;29.35;15.95;;;;;;;0.03;58.14;99266.22;5010858;28;20053;-81
2022/12/16 03:55:34;;;;;;;31.25;17.77;;;;;;;0.01;58.14;99268.00;5010706;28;20056;-82
2022/12/16 03:58:00;;;;;;;30.55;16.73;;;;;;;-0.03;58.03;99258.59;5010362;28;20057;-82
2022/12/16 04:00:27;;;;;;;29.73;16.98;;;;;;;-0.06;58.19;99264.69;4993364;28;20054;-81
2022/12/16 04:02:53;;;;;;;30.25;15.45;;;;;;;-0.08;58.73;99265.59;5010822;28;20058;-81
2022/12/16 04:05:21;;;;;;;31.00;16.63;;;;;;;-0.11;58.69;99263.91;5010306;28;20498;-80
2022/12/16 04:07:48;;;;;;;36.65;17.13;;;;;;;-0.11;58.61;99273.44;4993003;28;20053;-81
2022/12/16 04:10:15;;;;;;;32.05;16.67;;;;;;;-0.13;58.88;99270.88;5010530;28;20692;-81
2022/12/16 04:29:23;;;;;;;33.85;17.75;;;;;;;-0.12;59.30;99282.06;5013916;28;20546;-81
2022/12/16 04:31:51;;;;;;;37.22;17.85;;;;;;;-0.11;59.43;99286.38;5014089;28;20062;-81
2022/12/16 04:34:28;;;;;;;36.15;18.02;;;;;;;-0.11;59.31;99284.59;5014051;28;20046;-82
